Time;durP1;ratioP1;P1;durP2;ratioP2;P2;SDS_P1;SDS_P2;PMS_P1;PMS_P2;Temp;Humidity;BMP_temperature;BMP_pressure;BME280_temperature;BME280_humidity;BME280_pressure;Samples;Min_cycle;Max_cycle;Signal;HPM_P1;HPM_P2
2021/08/20 00:00:56;;;;;;;7.53;1.67;;;12.30;99.90;;;;;;5035047;28;20083;-86
2021/08/20 00:03:21;;;;;;;5.50;1.73;;;12.20;99.90;;;;;;5017104;28;20112;-87
2021/08/20 00:05:47;;;;;;;7.20;1.98;;;12.00;99.90;;;;;;5034836;28;20030;-87
2021/08/20 00:08:12;;;;;;;7.93;2.70;;;12.10;99.90;;;;;;5017157;28;20034;-87
2021/08/20 00:10:38;;;;;;;4.93;2.00;;;12.00;99.90;;;;;;5016972;28;20473;-86
2021/08/20 00:13:04;;;;;;;2.20;1.50;;;12.00;99.90;;;;;;5016279;28;20414;-86
2021/08/20 00:15:31;;;;;;;2.20;1.52;;;11.90;99.90;;;;;;5034691;28;20041;-86
2021/08/20 00:17:57;;;;;;;3.13;1.60;;;12.00;99.90;;;;;;5017069;28;20087;-87
2021/08/20 00:20:23;;;;;;;2.30;1.67;;;11.80;99.90;;;;;;5016910;28;20036;-86
2021/08/20 00:22:49;;;;;;;2.60;1.92;;;11.80;99.90;;;;;;5034675;28;20029;-86
2021/08/20 00:25:14;;;;;;;2.30;1.92;;;11.70;99.90;;;;;;5016826;28;20026;-87
2021/08/20 00:27:40;;;;;;;6.32;2.30;;;11.80;99.90;;;;;;5016710;28;20037;-87
2021/08/20 00:30:08;;;;;;;5.97;2.45;;;11.90;99.90;;;;;;5034563;28;20022;-86
2021/08/20 00:32:35;;;;;;;5.28;1.98;;;11.90;99.90;;;;;;5016462;28;20555;-87
2021/08/20 00:35:00;;;;;;;13.40;3.22;;;11.80;99.90;;;;;;5034622;28;20037;-86
2021/08/20 00:37:26;;;;;;;6.70;2.30;;;12.00;99.90;;;;;;5017067;28;20025;-87
2021/08/20 00:39:51;;;;;;;14.57;3.05;;;11.80;99.90;;;;;;5016749;28;20029;-86
2021/08/20 00:42:17;;;;;;;6.88;2.65;;;11.90;99.90;;;;;;5016516;28;20481;-86
2021/08/20 00:44:43;;;;;;;7.85;3.22;;;12.00;99.90;;;;;;5016165;28;20404;-87
2021/08/20 00:47:08;;;;;;;8.20;2.78;;;12.10;99.90;;;;;;5034014;28;20036;-86
2021/08/20 00:49:35;;;;;;;13.38;3.25;;;12.10;99.90;;;;;;5033944;28;20048;-86
2021/08/20 00:52:00;;;;;;;6.93;3.10;;;12.20;99.90;;;;;;5016251;28;20082;-87
2021/08/20 00:54:27;;;;;;;11.77;3.35;;;12.20;99.90;;;;;;5016042;28;20493;-86
2021/08/20 00:56:53;;;;;;;4.82;2.33;;;12.30;99.90;;;;;;5016238;28;20018;-86
2021/08/20 00:59:21;;;;;;;9.55;2.38;;;12.30;99.90;;;;;;5015971;28;20025;-86
2021/08/20 01:01:47;;;;;;;6.45;2.50;;;12.20;99.90;;;;;;5015985;28;20036;-86
2021/08/20 01:04:13;;;;;;;6.70;3.28;;;12.10;99.90;;;;;;5015892;28;20589;-86
2021/08/20 01:06:40;;;;;;;7.13;2.60;;;12.10;99.90;;;;;;5016214;28;20052;-87
2021/08/20 01:09:06;;;;;;;4.63;2.53;;;12.10;99.90;;;;;;5015948;28;20026;-85
2021/08/20 01:11:32;;;;;;;9.20;1.98;;;12.10;99.90;;;;;;5015834;28;20029;-86
2021/08/20 01:13:58;;;;;;;3.70;1.95;;;12.10;99.90;;;;;;5015752;28;20018;-86
2021/08/20 01:16:23;;;;;;;8.80;2.42;;;12.00;99.90;;;;;;5015973;28;20032;-86
2021/08/20 01:18:49;;;;;;;5.55;2.55;;;12.00;99.90;;;;;;5015651;28;20032;-86
2021/08/20 01:21:20;;;;;;;10.38;2.90;;;12.00;99.90;;;;;;5033319;28;20030;-85
2021/08/20 01:23:54;;;;;;;6.80;2.53;;;12.10;99.90;;;;;;5033061;28;20030;-86
2021/08/20 01:26:19;;;;;;;;;;;12.20;99.90;;;;;;5016173;28;20087;-87
2021/08/20 01:28:45;;;;;;;5.80;2.88;;;12.20;99.90;;;;;;5015588;28;20369;-85
2021/08/20 01:31:14;;;;;;;8.00;3.22;;;12.30;99.90;;;;;;5015538;28;20028;-86
2021/08/20 01:33:40;;;;;;;5.93;2.83;;;12.40;99.90;;;;;;5032920;28;20030;-87
2021/08/20 01:36:08;;;;;;;4.05;3.08;;;12.40;99.90;;;;;;5033035;28;20017;-87
2021/08/20 01:38:53;;;;;;;4.47;2.70;;;12.50;99.90;;;;;;5033265;28;20105;-87
2021/08/20 01:41:21;;;;;;;5.68;2.85;;;12.60;99.90;;;;;;5033283;28;20409;-86
2021/08/20 01:43:47;;;;;;;6.10;2.38;;;12.70;99.90;;;;;;5014967;28;20033;-87
2021/08/20 01:46:13;;;;;;;4.97;3.10;;;12.70;99.90;;;;;;5015197;28;20079;-86
2021/08/20 01:48:50;;;;;;;5.85;2.90;;;12.70;99.90;;;;;;5015103;28;20025;-86
2021/08/20 01:51:20;;;;;;;3.47;3.17;;;12.80;99.90;;;;;;5015166;28;20079;-87
2021/08/20 01:53:47;;;;;;;7.22;3.47;;;12.70;99.90;;;;;;5015023;28;20119;-86
2021/08/20 01:56:19;;;;;;;4.50;2.80;;;12.90;99.90;;;;;;5015009;28;20018;-86
2021/08/20 01:58:46;;;;;;;3.10;2.73;;;12.90;99.90;;;;;;5015036;28;20098;-86
2021/08/20 02:01:12;;;;;;;3.83;2.80;;;12.90;99.90;;;;;;5015155;28;20041;-86
2021/08/20 02:03:38;;;;;;;7.35;3.10;;;13.10;99.90;;;;;;5014658;28;20037;-86
2021/08/20 02:06:04;;;;;;;7.30;3.65;;;13.00;99.90;;;;;;5014836;28;20029;-86
2021/08/20 02:08:30;;;;;;;3.00;2.67;;;13.10;99.90;;;;;;5014828;28;20025;-86
2021/08/20 02:10:55;;;;;;;10.70;3.30;;;13.10;99.90;;;;;;5032540;28;20021;-87
2021/08/20 02:13:24;;;;;;;5.40;2.60;;;13.00;99.90;;;;;;5014745;28;20025;-86
2021/08/20 02:15:50;;;;;;;10.95;2.53;;;13.00;99.90;;;;;;5010167;28;20026;-87
2021/08/20 02:18:17;;;;;;;7.55;2.33;;;13.10;99.90;;;;;;4999734;28;20490;-87
2021/08/20 02:20:44;;;;;;;3.60;2.20;;;13.00;99.90;;;;;;4995137;28;20137;-86
2021/08/20 02:23:10;;;;;;;3.42;2.10;;;13.10;99.90;;;;;;5012566;28;20034;-87
2021/08/20 02:25:35;;;;;;;5.53;2.28;;;13.10;99.90;;;;;;4994718;28;20037;-86
2021/08/20 02:28:02;;;;;;;5.47;2.33;;;13.20;99.90;;;;;;4994994;28;20026;-87
2021/08/20 02:30:28;;;;;;;8.68;2.08;;;13.20;99.90;;;;;;4995105;28;20113;-87
2021/08/20 02:32:54;;;;;;;6.38;2.47;;;13.20;99.90;;;;;;5012536;28;20037;-87
2021/08/20 02:35:21;;;;;;;5.53;2.30;;;13.20;99.90;;;;;;5002628;28;20048;-86
2021/08/20 02:37:46;;;;;;;7.35;2.40;;;13.30;99.90;;;;;;5014638;28;20037;-87
2021/08/20 02:40:12;;;;;;;8.27;2.85;;;13.10;99.90;;;;;;5014609;28;20029;-86
2021/08/20 02:42:38;;;;;;;5.45;2.17;;;13.30;99.90;;;;;;5031959;28;20057;-87
2021/08/20 02:45:04;;;;;;;3.50;2.20;;;13.30;99.90;;;;;;5031778;28;20086;-86
2021/08/20 02:47:29;;;;;;;5.60;2.20;;;13.30;99.90;;;;;;5014197;28;20036;-86
2021/08/20 02:49:55;;;;;;;7.35;2.80;;;13.40;99.90;;;;;;5014498;28;20018;-86
2021/08/20 02:52:20;;;;;;;6.93;2.40;;;13.30;99.90;;;;;;5014316;28;20018;-86
2021/08/20 02:54:46;;;;;;;10.52;3.83;;;13.30;99.90;;;;;;5013956;28;20049;-86
2021/08/20 02:57:11;;;;;;;3.60;2.35;;;13.40;99.90;;;;;;5014549;28;20508;-85
2021/08/20 02:59:37;;;;;;;3.05;2.20;;;13.30;99.90;;;;;;5014301;28;20112;-86
2021/08/20 03:02:03;;;;;;;5.65;2.22;;;13.30;99.90;;;;;;5031896;28;20030;-86
2021/08/20 03:04:29;;;;;;;7.85;2.45;;;13.40;99.90;;;;;;5014060;28;20034;-86
2021/08/20 03:06:55;;;;;;;5.65;2.85;;;13.40;99.90;;;;;;5014234;28;20049;-86
2021/08/20 03:09:21;;;;;;;4.75;2.38;;;13.40;99.90;;;;;;5014295;28;20049;-87
2021/08/20 03:11:47;;;;;;;6.00;2.72;;;13.30;99.90;;;;;;5013916;28;20104;-86
2021/08/20 03:14:13;;;;;;;2.63;2.20;;;13.40;99.90;;;;;;5013910;28;20116;-86
2021/08/20 03:16:39;;;;;;;5.13;2.50;;;13.50;99.90;;;;;;5014130;28;20120;-87
2021/08/20 03:19:05;;;;;;;8.20;2.70;;;13.40;99.90;;;;;;5014150;28;20053;-87
2021/08/20 03:21:30;;;;;;;7.50;3.05;;;13.40;99.90;;;;;;5014233;28;20093;-87
2021/08/20 03:23:56;;;;;;;3.92;2.30;;;13.50;99.90;;;;;;5013781;28;20354;-87
2021/08/20 03:26:23;;;;;;;5.57;2.35;;;13.40;99.90;;;;;;5014022;28;20116;-87
2021/08/20 03:28:49;;;;;;;3.97;2.15;;;13.50;99.90;;;;;;5013925;28;20022;-87
2021/08/20 03:31:15;;;;;;;5.22;3.10;;;13.50;99.90;;;;;;5014045;28;20462;-87
2021/08/20 03:33:41;;;;;;;3.72;2.38;;;13.50;99.90;;;;;;5031398;28;20038;-87
2021/08/20 03:36:07;;;;;;;3.63;2.88;;;13.40;99.90;;;;;;5013778;28;20032;-87
2021/08/20 03:38:33;;;;;;;4.10;2.75;;;13.40;99.90;;;;;;5013851;28;20026;-87
2021/08/20 03:40:58;;;;;;;6.68;2.70;;;13.50;99.90;;;;;;5014008;28;20052;-86
2021/08/20 03:43:24;;;;;;;7.93;3.42;;;13.50;99.90;;;;;;5031512;28;20021;-87
2021/08/20 03:45:49;;;;;;;3.75;2.55;;;13.50;99.90;;;;;;5014531;28;20025;-86
2021/08/20 03:48:15;;;;;;;8.48;3.40;;;13.50;99.90;;;;;;5017481;28;20026;-87
2021/08/20 03:50:40;;;;;;;3.58;2.92;;;13.60;99.90;;;;;;5035169;28;20031;-86
2021/08/20 03:53:06;;;;;;;5.65;3.10;;;13.60;99.90;;;;;;5017325;28;20017;-87
2021/08/20 03:55:31;;;;;;;5.97;2.78;;;13.50;99.90;;;;;;5017087;28;20048;-87
2021/08/20 03:57:57;;;;;;;3.50;2.90;;;13.50;99.90;;;;;;5034913;28;20032;-86
2021/08/20 04:00:23;;;;;;;4.90;2.53;;;13.60;99.90;;;;;;5017345;28;20112;-87
2021/08/20 04:02:48;;;;;;;5.45;2.65;;;13.60;99.90;;;;;;5034971;28;20116;-86
2021/08/20 04:05:14;;;;;;;4.45;2.50;;;13.60;99.90;;;;;;5016952;28;20025;-86
2021/08/20 04:07:40;;;;;;;5.57;3.03;;;13.60;99.90;;;;;;5017069;28;20026;-86
2021/08/20 04:10:05;;;;;;;4.57;2.55;;;13.60;99.90;;;;;;5017016;28;20021;-86
2021/08/20 04:12:31;;;;;;;3.90;2.22;;;13.60;99.90;;;;;;5016906;28;20021;-85
2021/08/20 04:14:57;;;;;;;8.10;2.80;;;13.70;99.90;;;;;;5016780;28;20022;-86
2021/08/20 04:17:22;;;;;;;7.57;2.50;;;13.60;99.90;;;;;;5034655;28;20056;-86
2021/08/20 04:19:48;;;;;;;6.90;2.80;;;13.70;99.90;;;;;;5016839;28;20057;-86
2021/08/20 04:22:13;;;;;;;2.63;2.17;;;13.70;99.90;;;;;;5034413;28;20075;-86
2021/08/20 04:24:41;;;;;;;3.25;2.63;;;13.70;99.90;;;;;;5016555;28;20104;-87
2021/08/20 04:27:08;;;;;;;5.10;2.80;;;13.70;99.90;;;;;;5034249;28;20022;-86
2021/08/20 04:29:33;;;;;;;6.90;3.53;;;13.70;99.90;;;;;;5034342;28;20091;-86
2021/08/20 04:31:59;;;;;;;5.55;2.67;;;13.70;99.90;;;;;;5016684;28;20669;-86
2021/08/20 04:34:25;;;;;;;5.20;2.85;;;13.70;99.90;;;;;;5033905;28;20026;-86
2021/08/20 04:36:50;;;;;;;6.97;3.22;;;13.70;99.90;;;;;;5016687;28;20022;-86
2021/08/20 04:39:16;;;;;;;4.93;2.78;;;13.80;99.90;;;;;;5016333;28;20030;-86
2021/08/20 04:41:41;;;;;;;2.67;2.25;;;13.80;99.90;;;;;;5016433;28;20024;-87
2021/08/20 04:44:07;;;;;;;3.83;2.35;;;13.80;99.90;;;;;;5016208;28;20028;-86
2021/08/20 04:46:33;;;;;;;4.68;2.45;;;13.80;99.90;;;;;;5016259;28;20374;-87
2021/08/20 04:48:58;;;;;;;2.55;2.30;;;13.90;99.90;;;;;;5016214;28;20083;-86
2021/08/20 04:51:24;;;;;;;5.93;2.78;;;13.90;99.90;;;;;;5016130;28;20041;-87
2021/08/20 04:53:51;;;;;;;4.60;3.40;;;13.90;99.90;;;;;;5015941;28;20021;-85
2021/08/20 04:56:17;;;;;;;5.95;2.97;;;13.90;99.90;;;;;;5016035;28;20037;-86
2021/08/20 04:58:42;;;;;;;13.85;4.68;;;13.90;99.90;;;;;;5015364;28;20040;-86
2021/08/20 05:01:08;;;;;;;6.38;3.47;;;13.90;99.90;;;;;;5016134;28;20026;-85
2021/08/20 05:03:34;;;;;;;5.43;3.00;;;13.90;99.90;;;;;;5015779;28;20681;-85
2021/08/20 05:06:00;;;;;;;8.60;3.53;;;13.90;99.90;;;;;;5015709;28;20033;-85
2021/08/20 05:08:26;;;;;;;6.18;3.75;;;14.00;99.90;;;;;;5015666;28;20026;-85
2021/08/20 05:10:51;;;;;;;6.90;3.17;;;14.00;99.90;;;;;;5016042;28;20022;-85
2021/08/20 05:13:17;;;;;;;5.80;3.70;;;14.20;99.90;;;;;;5033523;28;20039;-84
2021/08/20 05:15:43;;;;;;;7.25;3.42;;;14.10;99.90;;;;;;5015449;28;20141;-85
2021/08/20 05:18:08;;;;;;;8.38;3.88;;;14.10;99.90;;;;;;5011330;28;20044;-85
2021/08/20 05:20:34;;;;;;;15.45;4.97;;;14.10;99.90;;;;;;4998272;28;20026;-86
2021/08/20 05:22:59;;;;;;;7.85;3.58;;;14.10;99.90;;;;;;4995782;28;20116;-85
2021/08/20 05:25:27;;;;;;;7.30;3.30;;;14.20;99.90;;;;;;4995653;28;20394;-85
2021/08/20 05:27:53;;;;;;;9.57;3.50;;;14.10;99.90;;;;;;4995695;28;20025;-85
2021/08/20 05:30:19;;;;;;;5.53;4.05;;;14.30;99.90;;;;;;4995820;28;20109;-85
2021/08/20 05:32:44;;;;;;;3.60;2.72;;;14.30;99.90;;;;;;5013251;28;20405;-86
2021/08/20 05:35:12;;;;;;;8.98;3.53;;;14.20;99.90;;;;;;5020331;28;20022;-85
2021/08/20 05:37:37;;;;;;;6.53;3.83;;;14.40;99.90;;;;;;5015191;28;20085;-85
2021/08/20 05:40:05;;;;;;;4.10;3.13;;;14.50;99.90;;;;;;5033000;28;20033;-86
2021/08/20 05:42:31;;;;;;;4.93;3.63;;;14.50;99.90;;;;;;5032674;28;20428;-85
2021/08/20 05:44:57;;;;;;;4.38;3.45;;;14.50;99.90;;;;;;5014746;28;20060;-85
2021/08/20 05:47:23;;;;;;;6.40;4.32;;;14.60;99.90;;;;;;5015178;28;20689;-86
2021/08/20 05:49:49;;;;;;;4.78;2.92;;;14.60;99.90;;;;;;5014963;28;20517;-85
2021/08/20 05:52:15;;;;;;;6.63;2.97;;;14.60;99.90;;;;;;5014747;28;20029;-86
2021/08/20 05:54:40;;;;;;;9.65;3.20;;;14.70;99.90;;;;;;5014783;28;20512;-85
2021/08/20 05:57:06;;;;;;;13.13;4.95;;;14.80;99.90;;;;;;5032518;28;20100;-85
2021/08/20 05:59:31;;;;;;;17.50;3.72;;;14.80;99.90;;;;;;5014929;28;20188;-85
2021/08/20 06:01:57;;;;;;;5.32;3.47;;;14.80;99.90;;;;;;5001643;28;20036;-86
2021/08/20 06:04:23;;;;;;;4.63;3.75;;;14.90;99.90;;;;;;4994520;28;20494;-86
2021/08/20 06:06:48;;;;;;;8.85;3.47;;;14.90;99.90;;;;;;5012287;28;20483;-86
2021/08/20 06:09:15;;;;;;;7.38;3.75;;;15.10;99.90;;;;;;4994170;28;20053;-86
2021/08/20 06:11:41;;;;;;;5.30;2.70;;;15.30;99.90;;;;;;4995233;28;20022;-86
2021/08/20 06:14:06;;;;;;;7.63;3.25;;;15.20;99.90;;;;;;5010886;28;20180;-86
2021/08/20 06:16:32;;;;;;;5.65;2.85;;;15.20;99.90;;;;;;5012440;28;20025;-87
2021/08/20 06:18:57;;;;;;;6.15;2.95;;;15.30;99.90;;;;;;4995247;28;20060;-86
2021/08/20 06:21:23;;;;;;;5.55;3.08;;;15.40;99.90;;;;;;4994884;28;20025;-86
2021/08/20 06:23:49;;;;;;;5.38;3.38;;;15.40;99.90;;;;;;5012251;28;20037;-87
2021/08/20 06:26:15;;;;;;;12.38;3.17;;;15.50;99.90;;;;;;4994983;28;20117;-87
2021/08/20 06:28:41;;;;;;;5.88;3.60;;;15.60;99.90;;;;;;4994789;28;20577;-87
2021/08/20 06:31:06;;;;;;;5.93;3.80;;;15.50;99.90;;;;;;5011110;28;20026;-86
2021/08/20 06:33:33;;;;;;;10.07;4.40;;;15.60;99.90;;;;;;5012283;28;20056;-87
2021/08/20 06:35:59;;;;;;;6.35;3.45;;;15.40;99.90;;;;;;4994317;28;20077;-86
2021/08/20 06:38:24;;;;;;;6.57;3.30;;;15.50;99.90;;;;;;5012210;28;20029;-85
2021/08/20 06:40:50;;;;;;;9.40;3.90;;;15.60;99.90;;;;;;4994432;28;20030;-86
2021/08/20 06:43:16;;;;;;;13.10;8.63;;;15.50;99.90;;;;;;4993540;28;20051;-87
2021/08/20 06:45:42;;;;;;;8.32;4.38;;;15.60;99.90;;;;;;5018452;28;20029;-86
2021/08/20 06:48:07;;;;;;;7.88;3.95;;;15.40;99.90;;;;;;5031005;28;20068;-88
2021/08/20 06:50:33;;;;;;;6.28;4.03;;;15.50;99.90;;;;;;4995994;28;20394;-87
2021/08/20 06:52:59;;;;;;;12.02;5.32;;;15.40;99.90;;;;;;5031863;28;20030;-88
2021/08/20 06:55:25;;;;;;;9.15;4.85;;;15.40;99.90;;;;;;5014129;28;20021;-87
2021/08/20 06:57:50;;;;;;;11.10;4.10;;;15.20;99.90;;;;;;5014528;28;20112;-87
2021/08/20 07:00:16;;;;;;;10.38;4.88;;;15.10;99.90;;;;;;5031655;28;20640;-87
2021/08/20 07:02:46;;;;;;;11.20;5.10;;;15.00;99.90;;;;;;5031878;28;20029;-86
2021/08/20 07:05:13;;;;;;;9.00;4.40;;;14.90;99.90;;;;;;5031900;28;20021;-87
2021/08/20 07:07:39;;;;;;;8.75;5.05;;;14.80;99.90;;;;;;5031919;28;20021;-87
2021/08/20 07:10:12;;;;;;;10.70;4.47;;;14.80;99.90;;;;;;5031840;28;20049;-87
2021/08/20 07:12:39;;;;;;;9.60;4.43;;;14.70;99.90;;;;;;5014143;28;20079;-86
2021/08/20 07:15:06;;;;;;;8.98;3.80;;;14.70;99.90;;;;;;5031676;28;20155;-86
2021/08/20 07:17:32;;;;;;;12.00;3.38;;;14.60;99.90;;;;;;5009453;28;20361;-86
2021/08/20 07:19:58;;;;;;;9.00;3.38;;;14.60;99.90;;;;;;5025366;28;20037;-87
2021/08/20 07:22:24;;;;;;;17.98;3.40;;;14.60;99.90;;;;;;5005342;28;21820;-87
2021/08/20 07:24:50;;;;;;;6.70;3.50;;;14.60;99.90;;;;;;5020825;28;20040;-85
2021/08/20 07:27:16;;;;;;;5.88;3.83;;;14.60;99.90;;;;;;5011601;28;20029;-86
2021/08/20 07:29:42;;;;;;;15.00;4.47;;;14.60;99.90;;;;;;5025198;28;20486;-85
2021/08/20 07:32:08;;;;;;;6.07;2.47;;;14.60;99.90;;;;;;5010173;28;20172;-83
2021/08/20 07:34:33;;;;;;;7.25;3.58;;;14.60;99.90;;;;;;5032665;28;20029;-84
2021/08/20 07:36:59;;;;;;;5.15;3.85;;;14.60;99.90;;;;;;4997646;28;20028;-84
2021/08/20 07:39:26;;;;;;;6.25;3.70;;;14.60;99.90;;;;;;5015304;28;20022;-84
2021/08/20 07:41:53;;;;;;;12.75;3.53;;;14.60;99.90;;;;;;5015153;28;20072;-84
2021/08/20 07:44:19;;;;;;;5.47;3.30;;;14.70;99.90;;;;;;5015057;28;20025;-84
2021/08/20 07:46:44;;;;;;;6.18;2.75;;;14.80;99.90;;;;;;4997329;28;20382;-84
2021/08/20 07:49:10;;;;;;;4.63;2.50;;;14.80;99.90;;;;;;5015322;28;20058;-83
2021/08/20 07:51:35;;;;;;;9.07;3.08;;;14.80;99.90;;;;;;4997531;28;20026;-84
2021/08/20 07:54:01;;;;;;;6.72;4.60;;;14.90;99.90;;;;;;5014662;28;20040;-84
2021/08/20 07:56:26;;;;;;;4.68;3.13;;;14.80;99.90;;;;;;4997491;28;20028;-84
2021/08/20 07:58:52;;;;;;;8.00;4.25;;;14.80;99.90;;;;;;4997264;28;20032;-83
2021/08/20 08:01:18;;;;;;;7.07;3.88;;;15.00;99.90;;;;;;4997337;28;20026;-84
2021/08/20 08:03:43;;;;;;;7.90;4.03;;;15.10;99.90;;;;;;5014667;28;20030;-85
2021/08/20 08:06:13;;;;;;;7.60;3.03;;;15.20;99.90;;;;;;4997161;28;20034;-81
2021/08/20 08:08:39;;;;;;;3.97;2.92;;;15.30;99.90;;;;;;4997190;28;20029;-81
2021/08/20 08:11:05;;;;;;;7.93;3.45;;;15.40;99.90;;;;;;5014803;28;20033;-81
2021/08/20 08:13:30;;;;;;;5.60;3.35;;;15.40;99.90;;;;;;5014590;28;20093;-80
2021/08/20 08:15:56;;;;;;;8.20;3.35;;;15.60;99.90;;;;;;4996793;28;20551;-82
2021/08/20 08:18:21;;;;;;;4.68;2.53;;;15.50;99.90;;;;;;5005514;28;20025;-84
2021/08/20 08:20:48;;;;;;;7.00;3.80;;;15.80;99.90;;;;;;5018346;28;20033;-85
2021/08/20 08:23:14;;;;;;;10.32;3.67;;;15.90;99.90;;;;;;4996897;28;20029;-85
2021/08/20 08:25:40;;;;;;;8.57;3.17;;;16.20;99.90;;;;;;4996655;28;20029;-87
2021/08/20 08:28:05;;;;;;;6.72;3.47;;;16.30;99.90;;;;;;4996922;28;20429;-87
2021/08/20 08:30:39;;;;;;;7.05;3.00;;;16.50;99.90;;;;;;4996868;28;20022;-87
2021/08/20 08:33:06;;;;;;;6.18;2.25;;;16.40;99.90;;;;;;4996026;28;20048;-88
2021/08/20 08:35:32;;;;;;;3.75;2.53;;;16.40;99.90;;;;;;5007232;28;20017;-88
2021/08/20 08:38:15;;;;;;;4.53;2.70;;;16.40;99.90;;;;;;5034425;28;20036;-87
2021/08/20 08:40:45;;;;;;;5.75;3.00;;;16.60;99.90;;;;;;5007137;28;20030;-83
2021/08/20 08:43:12;;;;;;;5.93;2.28;;;16.60;99.90;;;;;;5009708;28;20028;-82
2021/08/20 08:45:38;;;;;;;2.78;1.90;;;16.70;99.90;;;;;;5005667;28;20025;-84
2021/08/20 08:48:08;;;;;;;5.07;2.28;;;16.80;99.90;;;;;;5001371;28;20025;-85
2021/08/20 08:50:34;;;;;;;6.10;1.95;;;16.90;99.90;;;;;;5010682;28;20441;-82
2021/08/20 08:53:01;;;;;;;2.30;1.92;;;16.70;99.90;;;;;;5029439;28;20029;-84
2021/08/20 08:55:27;;;;;;;3.78;2.33;;;16.60;99.90;;;;;;4993258;28;20022;-81
2021/08/20 08:57:52;;;;;;;6.53;2.08;;;16.70;99.90;;;;;;4990104;28;20544;-81
2021/08/20 09:00:32;;;;;;;2.40;1.60;;;16.70;99.90;;;;;;5009300;28;20497;-82
2021/08/20 09:02:58;;;;;;;4.20;2.55;;;16.80;99.90;;;;;;5002478;28;20520;-81
2021/08/20 09:05:24;;;;;;;5.53;2.22;;;17.00;99.90;;;;;;5001697;28;20128;-80
2021/08/20 09:07:54;;;;;;;8.27;2.55;;;17.00;99.90;;;;;;5010245;28;20021;-81
2021/08/20 09:10:26;;;;;;;4.00;2.55;;;17.20;99.90;;;;;;5019594;28;20049;-81
2021/08/20 09:12:54;;;;;;;5.32;2.33;;;17.10;99.90;;;;;;5001602;28;20359;-81
2021/08/20 09:15:23;;;;;;;10.65;2.70;;;17.10;99.90;;;;;;5001700;28;20021;-81
2021/08/20 09:17:51;;;;;;;8.15;3.03;;;16.80;99.90;;;;;;5010826;28;20112;-81
2021/08/20 09:20:21;;;;;;;5.03;2.30;;;16.80;99.90;;;;;;5017638;28;20053;-81
2021/08/20 09:22:48;;;;;;;10.60;2.70;;;16.90;99.90;;;;;;5027527;28;20034;-81
2021/08/20 09:25:36;;;;;;;4.88;2.25;;;17.00;99.90;;;;;;5010189;28;20021;-81
2021/08/20 09:28:19;;;;;;;6.20;2.65;;;17.00;99.90;;;;;;5010586;28;20030;-81
2021/08/20 09:30:53;;;;;;;4.53;3.30;;;17.10;99.90;;;;;;5010678;28;20058;-81
2021/08/20 09:33:21;;;;;;;4.85;2.65;;;17.10;99.90;;;;;;5019280;28;20112;-81
2021/08/20 09:35:58;;;;;;;5.00;2.78;;;17.10;99.90;;;;;;5000721;28;20022;-81
2021/08/20 09:38:24;;;;;;;5.45;2.85;;;17.10;99.90;;;;;;5026940;28;20104;-81
2021/08/20 09:40:54;;;;;;;5.15;2.83;;;17.20;99.90;;;;;;5008808;28;20116;-81
2021/08/20 09:43:28;;;;;;;10.07;2.45;;;17.10;99.90;;;;;;5020122;28;20108;-81
2021/08/20 09:46:03;;;;;;;4.65;2.40;;;17.20;99.90;;;;;;5017243;28;20362;-81
2021/08/20 09:48:38;;;;;;;4.30;1.90;;;17.20;99.90;;;;;;5010469;28;20057;-80
2021/08/20 09:51:04;;;;;;;4.00;2.10;;;17.00;99.90;;;;;;5000479;28;20453;-80
2021/08/20 09:53:29;;;;;;;7.03;2.13;;;17.00;99.90;;;;;;5009427;28;20101;-81
2021/08/20 09:55:55;;;;;;;4.57;1.92;;;16.90;99.90;;;;;;5009286;28;20470;-81
2021/08/20 09:58:21;;;;;;;2.85;1.58;;;16.60;99.90;;;;;;5006442;28;20481;-81
2021/08/20 10:00:48;;;;;;;4.85;1.67;;;16.70;99.90;;;;;;5019534;28;20028;-81
2021/08/20 10:03:17;;;;;;;6.22;2.17;;;16.70;99.90;;;;;;4999842;28;20561;-81
2021/08/20 10:05:45;;;;;;;5.10;1.88;;;16.80;99.90;;;;;;4992656;28;20464;-81
2021/08/20 10:08:13;;;;;;;7.07;2.00;;;17.30;99.90;;;;;;5018012;28;20033;-81
2021/08/20 10:10:45;;;;;;;1.83;1.10;;;17.40;99.90;;;;;;5009857;28;20030;-81
2021/08/20 10:13:16;;;;;;;2.70;1.38;;;17.70;99.90;;;;;;5001056;28;20021;-81
2021/08/20 10:15:43;;;;;;;2.50;1.00;;;17.90;99.90;;;;;;5001667;28;20049;-81
2021/08/20 10:18:13;;;;;;;2.88;1.20;;;18.20;99.90;;;;;;5011047;28;20080;-81
2021/08/20 10:20:40;;;;;;;3.40;1.10;;;18.70;99.90;;;;;;5018667;28;20053;-81
2021/08/20 10:23:08;;;;;;;1.42;1.05;;;19.00;99.90;;;;;;5018322;28;20053;-81
2021/08/20 10:25:34;;;;;;;2.22;1.05;;;19.30;99.90;;;;;;5009894;28;20036;-81
2021/08/20 10:28:00;;;;;;;2.15;0.80;;;19.50;99.90;;;;;;5009020;28;20030;-82
2021/08/20 10:30:26;;;;;;;1.70;0.93;;;19.60;99.90;;;;;;5010065;28;20030;-83
2021/08/20 10:33:02;;;;;;;3.28;1.10;;;19.60;99.90;;;;;;5018871;28;20440;-83
2021/08/20 10:35:47;;;;;;;0.80;0.57;;;19.40;99.90;;;;;;5016944;28;20026;-83
2021/08/20 10:38:38;;;;;;;3.35;0.80;;;19.30;99.90;;;;;;5005834;28;20041;-83
2021/08/20 10:41:22;;;;;;;3.53;1.38;;;19.00;99.90;;;;;;5018249;28;20128;-82
2021/08/20 10:43:51;;;;;;;2.17;0.90;;;18.70;99.90;;;;;;5006959;28;20079;-83
2021/08/20 10:46:32;;;;;;;5.45;1.15;;;18.40;99.90;;;;;;5010375;28;20034;-83
2021/08/20 10:49:21;;;;;;;2.45;0.90;;;18.30;99.90;;;;;;5000257;28;20109;-83
2021/08/20 10:51:53;;;;;;;5.25;1.10;;;18.10;99.90;;;;;;5017720;28;20686;-88
2021/08/20 10:54:31;;;;;;;3.30;1.25;;;18.00;99.90;;;;;;5012069;28;20026;-86
2021/08/20 10:56:57;;;;;;;2.85;1.13;;;18.10;99.90;;;;;;5002596;28;20109;-82
2021/08/20 10:59:47;;;;;;;2.83;1.90;;;18.30;99.90;;;;;;5006877;28;20018;-84
2021/08/20 11:02:19;;;;;;;2.35;1.02;;;18.30;99.90;;;;;;5004323;28;20477;-83
2021/08/20 11:05:03;;;;;;;2.83;1.20;;;18.50;99.90;;;;;;5007541;28;20540;-84
2021/08/20 11:07:37;;;;;;;2.00;1.00;;;18.40;99.90;;;;;;5015161;28;20072;-85
2021/08/20 11:10:09;;;;;;;1.23;1.08;;;18.70;99.90;;;;;;4998148;28;20022;-84
2021/08/20 11:12:42;;;;;;;2.55;1.33;;;18.80;99.90;;;;;;5005051;28;20048;-84
2021/08/20 11:15:17;;;;;;;5.07;1.30;;;18.80;99.90;;;;;;5016202;28;20087;-83
2021/08/20 11:17:51;;;;;;;4.28;1.30;;;18.80;99.90;;;;;;5029702;28;20121;-84
2021/08/20 11:20:21;;;;;;;2.35;0.95;;;18.80;99.90;;;;;;5019482;28;20180;-85
2021/08/20 11:23:10;;;;;;;3.78;1.58;;;18.40;99.90;;;;;;5004914;28;20455;-85
2021/08/20 11:25:37;;;;;;;3.90;1.33;;;18.10;99.90;;;;;;5032084;28;20040;-84
2021/08/20 11:28:05;;;;;;;3.10;1.55;;;17.80;99.90;;;;;;5003894;28;20033;-83
2021/08/20 11:30:32;;;;;;;3.13;1.48;;;17.70;99.90;;;;;;5013093;28;20485;-82
2021/08/20 11:33:17;;;;;;;5.28;1.95;;;17.60;99.90;;;;;;5008266;28;20029;-84
2021/08/20 11:35:45;;;;;;;2.10;1.42;;;17.60;99.90;;;;;;5025921;28;20018;-82
2021/08/20 11:38:11;;;;;;;3.38;1.95;;;17.70;99.90;;;;;;5023426;28;20438;-81
2021/08/20 11:40:51;;;;;;;3.35;1.85;;;17.70;99.90;;;;;;5032508;28;20029;-81
2021/08/20 11:43:17;;;;;;;5.13;1.80;;;17.90;99.90;;;;;;5032472;28;20026;-82
2021/08/20 11:45:43;;;;;;;6.82;1.70;;;18.20;99.90;;;;;;5015609;28;20030;-84
2021/08/20 11:48:08;;;;;;;5.50;1.70;;;18.10;99.90;;;;;;5024187;28;20069;-80
2021/08/20 11:50:34;;;;;;;6.80;1.92;;;18.00;99.90;;;;;;5032529;28;20101;-83
2021/08/20 11:53:00;;;;;;;3.45;1.73;;;17.90;99.90;;;;;;5023623;28;20022;-83
2021/08/20 11:55:26;;;;;;;3.95;1.50;;;18.00;99.90;;;;;;5010494;28;20025;-82
2021/08/20 11:57:52;;;;;;;2.75;1.50;;;18.20;99.90;;;;;;4998657;28;20497;-82
2021/08/20 12:00:18;;;;;;;2.45;1.13;;;18.60;99.90;;;;;;5004139;28;20106;-82
2021/08/20 12:02:44;;;;;;;4.63;1.67;;;18.80;99.90;;;;;;5015615;28;20481;-82
2021/08/20 12:05:22;;;;;;;1.90;1.20;;;18.80;99.90;;;;;;5007362;28;20026;-81
2021/08/20 12:07:48;;;;;;;2.78;1.13;;;18.80;99.90;;;;;;5013418;28;20164;-81
2021/08/20 12:10:16;;;;;;;3.42;1.25;;;19.00;99.90;;;;;;5020403;28;20033;-82
2021/08/20 12:12:43;;;;;;;2.28;1.00;;;19.00;99.90;;;;;;5010585;28;20022;-81
2021/08/20 12:15:10;;;;;;;6.53;1.38;;;19.00;99.90;;;;;;5011941;28;20486;-81
2021/08/20 12:17:36;;;;;;;2.08;1.25;;;19.00;99.90;;;;;;5003083;28;20490;-82
2021/08/20 12:20:21;;;;;;;5.00;1.55;;;19.20;99.90;;;;;;5011718;28;20052;-82
2021/08/20 12:22:50;;;;;;;5.65;2.00;;;19.70;99.90;;;;;;4994394;28;20382;-81
2021/08/20 12:25:18;;;;;;;4.55;1.38;;;19.90;99.90;;;;;;5001647;28;20025;-82
2021/08/20 12:27:46;;;;;;;2.33;1.40;;;20.00;99.90;;;;;;5028562;28;20107;-82
2021/08/20 12:30:22;;;;;;;3.45;1.10;;;20.20;99.90;;;;;;5019642;28;20018;-82
2021/08/20 12:32:56;;;;;;;2.33;1.00;;;20.30;99.90;;;;;;5004232;28;20139;-82
2021/08/20 12:35:23;;;;;;;4.03;1.85;;;20.40;99.90;;;;;;5020539;28;20798;-82
2021/08/20 12:38:16;;;;;;;2.45;1.20;;;20.50;99.90;;;;;;5020573;28;20034;-82
2021/08/20 12:40:56;;;;;;;3.15;1.30;;;20.80;99.90;;;;;;5017119;28;20033;-82
2021/08/20 12:43:37;;;;;;;6.38;1.65;;;20.80;99.90;;;;;;5011154;28;20053;-82
2021/08/20 12:46:11;;;;;;;6.80;2.10;;;20.40;99.90;;;;;;5002492;28;20568;-82
2021/08/20 12:48:38;;;;;;;4.55;1.48;;;20.30;99.90;;;;;;5002432;28;20039;-82